createdAt,value
2023-06-27T00:00:08.378Z,941.64
2023-06-27T00:01:08.376Z,941.66
2023-06-27T00:02:08.369Z,941.68
2023-06-27T00:03:08.377Z,941.72
2023-06-27T00:04:08.379Z,941.73
2023-06-27T00:05:08.420Z,941.71
2023-06-27T00:06:08.334Z,941.71
2023-06-27T00:07:08.309Z,941.75
2023-06-27T00:08:08.288Z,941.79
2023-06-27T00:09:08.267Z,941.76
2023-06-27T00:10:08.282Z,941.78
2023-06-27T00:11:08.275Z,941.74
2023-06-27T00:12:08.398Z,941.75
2023-06-27T00:13:08.230Z,941.76
2023-06-27T00:14:08.227Z,941.81
2023-06-27T00:15:08.237Z,941.86
2023-06-27T00:16:08.205Z,941.85
2023-06-27T00:17:08.223Z,941.83
2023-06-27T00:18:08.187Z,941.75
2023-06-27T00:19:08.161Z,941.79
2023-06-27T00:20:08.212Z,941.80
2023-06-27T00:21:08.164Z,941.80
2023-06-27T00:22:08.130Z,941.82
2023-06-27T00:23:08.140Z,941.79
2023-06-27T00:24:08.110Z,941.76
2023-06-27T00:25:08.088Z,941.77
2023-06-27T00:26:08.097Z,941.78
2023-06-27T00:27:08.113Z,941.83
2023-06-27T00:28:08.095Z,941.84
2023-06-27T00:29:08.181Z,941.84
2023-06-27T00:30:08.060Z,941.88
2023-06-27T00:31:08.051Z,941.85
2023-06-27T00:32:08.030Z,941.85
2023-06-27T00:33:08.012Z,941.89
2023-06-27T00:34:08.076Z,941.90
2023-06-27T00:35:07.997Z,941.91
2023-06-27T00:36:07.989Z,941.91
2023-06-27T00:37:07.983Z,941.91
2023-06-27T00:38:07.955Z,941.93
2023-06-27T00:39:07.951Z,941.96
2023-06-27T00:40:07.925Z,941.93
2023-06-27T00:41:07.924Z,941.91
2023-06-27T00:42:07.939Z,941.93
2023-06-27T00:43:07.914Z,941.94
2023-06-27T00:44:07.881Z,941.92
2023-06-27T00:45:07.868Z,941.90
2023-06-27T00:46:07.886Z,941.96
2023-06-27T00:47:07.852Z,942.00
2023-06-27T00:48:08.029Z,941.97
2023-06-27T00:49:07.826Z,941.99
2023-06-27T00:50:07.829Z,942.01
2023-06-27T00:51:07.852Z,942.01
2023-06-27T00:52:07.840Z,942.02
2023-06-27T00:53:07.787Z,941.96
2023-06-27T00:54:07.810Z,941.96
2023-06-27T00:55:07.761Z,941.97
2023-06-27T00:56:07.751Z,941.93
2023-06-27T00:57:07.751Z,941.94
2023-06-27T00:58:07.730Z,941.98
2023-06-27T00:59:07.733Z,941.91
2023-06-27T01:00:07.766Z,941.91
2023-06-27T01:01:07.693Z,941.93
2023-06-27T01:02:07.702Z,941.96
2023-06-27T01:03:07.820Z,941.89
2023-06-27T01:04:07.672Z,941.93
2023-06-27T01:05:07.735Z,941.91
2023-06-27T01:06:07.675Z,941.91
2023-06-27T01:07:07.643Z,941.92
2023-06-27T01:08:07.645Z,941.93
2023-06-27T01:09:07.617Z,941.95
2023-06-27T01:10:07.633Z,941.95
2023-06-27T01:11:07.622Z,941.92
2023-06-27T01:12:07.603Z,941.91
2023-06-27T01:13:07.598Z,941.88
2023-06-27T01:14:07.562Z,941.90
2023-06-27T01:15:07.572Z,941.87
2023-06-27T01:16:07.546Z,941.83
2023-06-27T01:17:07.566Z,941.88
2023-06-27T01:18:07.544Z,941.88
2023-06-27T01:19:07.502Z,941.83
2023-06-27T01:20:07.504Z,941.87
2023-06-27T01:21:07.478Z,941.89
2023-06-27T01:22:07.509Z,941.93
2023-06-27T01:23:07.461Z,941.98
2023-06-27T01:24:07.477Z,942.00
2023-06-27T01:25:07.536Z,941.99
2023-06-27T01:26:07.426Z,942.01
2023-06-27T01:27:07.412Z,942.04
2023-06-27T01:28:07.477Z,942.08
2023-06-27T01:29:08.398Z,942.11
2023-06-27T01:30:07.402Z,942.09
2023-06-27T01:31:07.415Z,941.99
2023-06-27T01:32:07.379Z,941.94
2023-06-27T01:33:07.372Z,941.96
2023-06-27T01:34:07.452Z,941.97
2023-06-27T01:35:07.353Z,941.99
2023-06-27T01:36:07.368Z,941.96
2023-06-27T01:37:07.310Z,941.95
2023-06-27T01:38:07.314Z,941.92
2023-06-27T01:39:07.299Z,941.95
2023-06-27T01:40:07.293Z,941.97
2023-06-27T01:41:07.279Z,941.96
2023-06-27T01:42:07.317Z,941.97
2023-06-27T01:43:07.253Z,941.95
2023-06-27T01:44:07.253Z,941.89
2023-06-27T01:45:07.234Z,941.85
2023-06-27T01:46:07.268Z,941.84
2023-06-27T01:47:07.277Z,941.90
2023-06-27T01:48:07.261Z,941.93
2023-06-27T01:49:07.210Z,941.95
2023-06-27T01:50:07.192Z,941.88
2023-06-27T01:51:07.151Z,941.83
2023-06-27T01:52:07.156Z,941.86
2023-06-27T01:53:07.186Z,941.83
2023-06-27T01:54:07.137Z,941.86
2023-06-27T01:55:07.162Z,941.88
2023-06-27T01:56:07.105Z,941.85
2023-06-27T01:57:07.095Z,941.79
2023-06-27T01:58:07.083Z,941.80
2023-06-27T01:59:07.068Z,941.78
2023-06-27T02:00:07.072Z,941.84
2023-06-27T02:01:07.509Z,941.81
2023-06-27T02:02:07.079Z,941.80
2023-06-27T02:03:07.338Z,941.82
2023-06-27T02:04:07.020Z,941.75
2023-06-27T02:05:07.013Z,941.77
2023-06-27T02:06:07.035Z,941.77
2023-06-27T02:07:07.048Z,941.78
2023-06-27T02:08:06.999Z,941.79
2023-06-27T02:09:06.963Z,941.77
2023-06-27T02:10:06.954Z,941.79
2023-06-27T02:11:06.987Z,941.81
2023-06-27T02:12:06.941Z,941.83
2023-06-27T02:13:07.156Z,941.79
2023-06-27T02:14:06.918Z,941.74
2023-06-27T02:15:06.902Z,941.74
2023-06-27T02:16:06.899Z,941.77
2023-06-27T02:17:06.914Z,941.82
2023-06-27T02:18:06.932Z,941.84
2023-06-27T02:19:06.925Z,941.86
2023-06-27T02:20:06.885Z,941.84
2023-06-27T02:21:06.886Z,941.83
2023-06-27T02:22:06.846Z,941.86
2023-06-27T02:23:06.813Z,941.81
2023-06-27T02:24:06.834Z,941.81
2023-06-27T02:25:06.935Z,941.80
2023-06-27T02:26:06.774Z,941.85
2023-06-27T02:27:06.766Z,941.82
2023-06-27T02:28:06.769Z,941.84
2023-06-27T02:29:06.752Z,941.82
2023-06-27T02:30:06.823Z,941.78
2023-06-27T02:31:06.797Z,941.80
2023-06-27T02:32:06.722Z,941.79
2023-06-27T02:33:06.757Z,941.84
2023-06-27T02:34:07.428Z,941.83
2023-06-27T02:35:06.733Z,941.85
2023-06-27T02:36:06.674Z,941.86
2023-06-27T02:37:06.653Z,941.86
2023-06-27T02:38:06.670Z,941.85
2023-06-27T02:39:06.632Z,941.88
2023-06-27T02:40:06.675Z,941.89
2023-06-27T02:41:06.617Z,941.85
2023-06-27T02:42:06.627Z,941.86
2023-06-27T02:43:06.601Z,941.83
2023-06-27T02:44:06.631Z,941.82
2023-06-27T02:45:06.568Z,941.79
2023-06-27T02:46:06.625Z,941.76
2023-06-27T02:47:06.597Z,941.73
2023-06-27T02:48:06.578Z,941.70
2023-06-27T02:49:06.521Z,941.67
2023-06-27T02:50:06.581Z,941.66
2023-06-27T02:51:06.523Z,941.64
2023-06-27T02:52:06.552Z,941.68
2023-06-27T02:53:06.477Z,941.71
2023-06-27T02:54:06.484Z,941.69
2023-06-27T02:55:06.458Z,941.72
2023-06-27T02:56:06.453Z,941.72
2023-06-27T02:57:06.441Z,941.70
2023-06-27T02:58:06.450Z,941.68
2023-06-27T02:59:06.415Z,941.72
2023-06-27T03:00:06.416Z,941.71
2023-06-27T03:01:06.399Z,941.72
2023-06-27T03:02:06.556Z,941.73
2023-06-27T03:03:06.396Z,941.78
2023-06-27T03:04:18.361Z,941.77
2023-06-27T03:05:07.353Z,941.78
2023-06-27T03:06:06.337Z,941.77
2023-06-27T03:07:06.437Z,941.70
2023-06-27T03:08:06.338Z,941.71
2023-06-27T03:09:06.331Z,941.73
2023-06-27T03:10:06.320Z,941.76
2023-06-27T03:11:06.314Z,941.81
2023-06-27T03:12:06.279Z,941.82
2023-06-27T03:13:06.264Z,941.81
2023-06-27T03:14:06.266Z,941.82
2023-06-27T03:15:06.265Z,941.80
2023-06-27T03:16:06.262Z,941.78
2023-06-27T03:17:06.275Z,941.81
2023-06-27T03:18:06.234Z,941.78
2023-06-27T03:19:06.208Z,941.76
2023-06-27T03:20:13.732Z,941.79
2023-06-27T03:21:06.201Z,941.81
2023-06-27T03:22:06.199Z,941.82
2023-06-27T03:23:06.179Z,941.85
2023-06-27T03:24:06.203Z,941.83
2023-06-27T03:25:06.121Z,941.80
2023-06-27T03:26:06.117Z,941.84
2023-06-27T03:27:06.109Z,941.87
2023-06-27T03:28:06.118Z,941.88
2023-06-27T03:29:06.092Z,941.92
2023-06-27T03:30:06.075Z,941.90
2023-06-27T03:31:06.073Z,941.89
2023-06-27T03:32:06.194Z,941.88
2023-06-27T03:33:06.102Z,941.89
2023-06-27T03:34:06.053Z,941.92
2023-06-27T03:35:06.030Z,941.99
2023-06-27T03:36:06.018Z,941.94
2023-06-27T03:37:06.049Z,941.95
2023-06-27T03:38:06.009Z,941.95
2023-06-27T03:39:06.032Z,941.96
2023-06-27T03:40:05.982Z,941.94
2023-06-27T03:41:05.978Z,941.95
2023-06-27T03:42:05.977Z,941.93
2023-06-27T03:43:05.975Z,941.96
2023-06-27T03:44:05.991Z,942.02
2023-06-27T03:45:05.941Z,942.00
2023-06-27T03:46:05.991Z,942.00
2023-06-27T03:47:05.886Z,941.99
2023-06-27T03:48:05.920Z,941.97
2023-06-27T03:49:05.936Z,941.98
2023-06-27T03:50:05.986Z,942.00
2023-06-27T03:51:05.845Z,941.98
2023-06-27T03:52:05.834Z,941.99
2023-06-27T03:53:05.828Z,942.00
2023-06-27T03:54:05.828Z,941.99
2023-06-27T03:55:05.842Z,942.00
2023-06-27T03:56:05.842Z,942.00
2023-06-27T03:57:05.811Z,941.93
2023-06-27T03:58:05.806Z,941.92
2023-06-27T03:59:05.794Z,941.87
2023-06-27T04:00:05.764Z,941.88
2023-06-27T04:01:05.811Z,941.96
2023-06-27T04:02:05.735Z,941.98
2023-06-27T04:03:05.814Z,942.00
2023-06-27T04:04:05.829Z,941.99
2023-06-27T04:05:05.812Z,941.94
2023-06-27T04:06:05.693Z,941.89
2023-06-27T04:07:05.781Z,941.87
2023-06-27T04:08:05.662Z,941.85
2023-06-27T04:09:05.654Z,941.93
2023-06-27T04:10:05.666Z,941.96
2023-06-27T04:11:05.684Z,941.98
2023-06-27T04:12:05.699Z,941.99
2023-06-27T04:13:05.641Z,942.04
2023-06-27T04:14:05.618Z,941.96
2023-06-27T04:15:05.638Z,941.96
2023-06-27T04:16:05.660Z,941.98
2023-06-27T04:17:05.626Z,942.02
2023-06-27T04:18:05.613Z,942.02
2023-06-27T04:19:05.544Z,941.99
2023-06-27T04:20:05.614Z,941.98
2023-06-27T04:21:05.550Z,942.03
2023-06-27T04:22:05.541Z,942.03
2023-06-27T04:23:05.543Z,942.01
2023-06-27T04:24:05.498Z,942.06
2023-06-27T04:25:05.508Z,942.02
2023-06-27T04:26:05.679Z,942.02
2023-06-27T04:27:05.486Z,942.02
2023-06-27T04:28:05.477Z,942.02
2023-06-27T04:29:05.478Z,942.04
2023-06-27T04:30:05.465Z,942.06
2023-06-27T04:31:05.442Z,942.07
2023-06-27T04:32:05.454Z,942.07
2023-06-27T04:33:05.473Z,942.07
2023-06-27T04:34:05.425Z,942.07
2023-06-27T04:35:05.442Z,942.08
2023-06-27T04:36:05.387Z,941.99
2023-06-27T04:37:05.445Z,942.01
2023-06-27T04:38:05.359Z,942.00
2023-06-27T04:39:05.369Z,942.00
2023-06-27T04:40:05.312Z,942.06
2023-06-27T04:41:05.317Z,942.03
2023-06-27T04:42:05.363Z,942.03
2023-06-27T04:43:05.377Z,942.08
2023-06-27T04:44:05.275Z,942.07
2023-06-27T04:45:05.317Z,942.02
2023-06-27T04:46:05.284Z,942.01
2023-06-27T04:47:05.386Z,942.05
2023-06-27T04:48:05.362Z,942.04
2023-06-27T04:49:05.297Z,942.06
2023-06-27T04:50:05.227Z,942.10
2023-06-27T04:51:05.261Z,942.06
2023-06-27T04:52:05.198Z,942.04
2023-06-27T04:53:05.240Z,942.10
2023-06-27T04:54:05.166Z,942.09
2023-06-27T04:55:05.163Z,942.08
2023-06-27T04:56:05.148Z,942.12
2023-06-27T04:57:12.748Z,942.11
2023-06-27T04:58:06.160Z,942.12
2023-06-27T04:59:05.132Z,942.13
2023-06-27T05:00:05.130Z,942.15
2023-06-27T05:01:05.143Z,942.19
2023-06-27T05:02:05.079Z,942.19
2023-06-27T05:03:05.143Z,942.19
2023-06-27T05:04:05.060Z,942.20
2023-06-27T05:05:05.104Z,942.17
2023-06-27T05:06:05.066Z,942.18
2023-06-27T05:07:05.131Z,942.13
2023-06-27T05:08:05.067Z,942.12
2023-06-27T05:09:05.175Z,942.15
2023-06-27T05:10:04.987Z,942.14
2023-06-27T05:11:05.021Z,942.20
2023-06-27T05:12:04.994Z,942.16
2023-06-27T05:13:04.984Z,942.16
2023-06-27T05:14:04.940Z,942.18
2023-06-27T05:15:05.069Z,942.14
2023-06-27T05:16:04.931Z,942.14
2023-06-27T05:17:04.979Z,942.12
2023-06-27T05:18:04.899Z,942.14
2023-06-27T05:19:04.898Z,942.15
2023-06-27T05:20:04.883Z,942.10
2023-06-27T05:21:04.896Z,942.16
2023-06-27T05:22:04.862Z,942.16
2023-06-27T05:23:04.899Z,942.15
2023-06-27T05:24:04.858Z,942.17
2023-06-27T05:25:04.913Z,942.17
2023-06-27T05:26:04.848Z,942.19
2023-06-27T05:27:04.841Z,942.17
2023-06-27T05:28:04.802Z,942.21
2023-06-27T05:29:04.800Z,942.21
2023-06-27T05:30:04.766Z,942.25
2023-06-27T05:31:04.827Z,942.21
2023-06-27T05:32:04.816Z,942.21
2023-06-27T05:33:04.835Z,942.20
2023-06-27T05:34:04.739Z,942.20
2023-06-27T05:35:04.766Z,942.19
2023-06-27T05:36:04.735Z,942.23
2023-06-27T05:37:04.736Z,942.25
2023-06-27T05:38:04.691Z,942.24
2023-06-27T05:39:04.691Z,942.25
2023-06-27T05:40:04.746Z,942.23
2023-06-27T05:41:04.681Z,942.24
2023-06-27T05:42:04.706Z,942.27
2023-06-27T05:43:04.638Z,942.26
2023-06-27T05:44:04.630Z,942.22
2023-06-27T05:45:04.630Z,942.22
2023-06-27T05:46:04.704Z,942.20
2023-06-27T05:47:04.626Z,942.22
2023-06-27T05:48:04.639Z,942.21
2023-06-27T05:49:04.576Z,942.19
2023-06-27T05:50:04.564Z,942.19
2023-06-27T05:51:04.568Z,942.19
2023-06-27T05:52:04.564Z,942.14
2023-06-27T05:53:04.561Z,942.15
2023-06-27T05:54:04.519Z,942.19
2023-06-27T05:55:04.507Z,942.19
2023-06-27T05:56:04.558Z,942.14
2023-06-27T05:57:04.481Z,942.04
2023-06-27T05:58:04.464Z,942.05
2023-06-27T05:59:04.459Z,942.10
2023-06-27T06:00:04.487Z,942.06
2023-06-27T06:01:04.484Z,942.04
2023-06-27T06:02:04.487Z,942.02
2023-06-27T06:03:04.546Z,942.04
2023-06-27T06:04:04.459Z,942.03
2023-06-27T06:05:04.440Z,942.03
2023-06-27T06:06:04.385Z,942.07
2023-06-27T06:07:04.436Z,942.11
2023-06-27T06:08:04.354Z,942.04
2023-06-27T06:09:04.351Z,942.07
2023-06-27T06:10:04.350Z,942.10
2023-06-27T06:11:04.356Z,942.06
2023-06-27T06:12:04.344Z,942.06
2023-06-27T06:13:04.316Z,942.03
2023-06-27T06:14:04.385Z,942.02
2023-06-27T06:15:04.315Z,942.05
2023-06-27T06:16:04.309Z,942.10
2023-06-27T06:17:04.295Z,942.14
2023-06-27T06:18:04.324Z,942.09
2023-06-27T06:19:04.294Z,942.12
2023-06-27T06:20:04.228Z,942.12
2023-06-27T06:21:04.220Z,942.10
2023-06-27T06:22:04.326Z,942.10
2023-06-27T06:23:04.226Z,942.10
2023-06-27T06:24:04.191Z,942.16
2023-06-27T06:25:04.226Z,942.18
2023-06-27T06:26:04.180Z,942.16
2023-06-27T06:27:04.191Z,942.18
2023-06-27T06:28:04.169Z,942.18
2023-06-27T06:29:04.130Z,942.20
2023-06-27T06:30:04.121Z,942.21
2023-06-27T06:31:04.135Z,942.17
2023-06-27T06:32:04.138Z,942.19
2023-06-27T06:33:04.172Z,942.16
2023-06-27T06:34:04.082Z,942.11
2023-06-27T06:35:04.124Z,942.10
2023-06-27T06:36:04.073Z,942.10
2023-06-27T06:37:04.075Z,942.09
2023-06-27T06:38:04.051Z,942.03
2023-06-27T06:39:04.024Z,942.02
2023-06-27T06:40:04.049Z,942.03
2023-06-27T06:41:04.024Z,942.02
2023-06-27T06:42:04.020Z,941.98
2023-06-27T06:43:03.998Z,942.02
2023-06-27T06:44:03.984Z,941.97
2023-06-27T06:45:04.013Z,941.99
2023-06-27T06:46:04.074Z,942.02
2023-06-27T06:47:03.942Z,942.01
2023-06-27T06:48:04.097Z,941.97
2023-06-27T06:49:03.918Z,941.97
2023-06-27T06:50:03.912Z,941.98
2023-06-27T06:51:03.946Z,941.95
2023-06-27T06:52:03.879Z,941.91
2023-06-27T06:53:03.869Z,941.85
2023-06-27T06:54:03.886Z,941.87
2023-06-27T06:55:03.878Z,941.83
2023-06-27T06:56:03.841Z,941.81
2023-06-27T06:57:03.845Z,941.77
2023-06-27T06:58:03.824Z,941.78
2023-06-27T06:59:03.880Z,941.79
2023-06-27T07:00:03.793Z,941.80
2023-06-27T07:01:03.826Z,941.80
2023-06-27T07:02:03.856Z,941.77
2023-06-27T07:03:03.792Z,941.74
2023-06-27T07:04:03.889Z,941.80
2023-06-27T07:05:03.792Z,941.81
2023-06-27T07:06:03.734Z,941.83
2023-06-27T07:07:03.850Z,941.84
2023-06-27T07:08:03.731Z,941.86
2023-06-27T07:09:03.705Z,941.85
2023-06-27T07:10:03.736Z,941.84
2023-06-27T07:11:03.694Z,941.83
2023-06-27T07:12:03.721Z,941.86
2023-06-27T07:13:03.660Z,941.89
2023-06-27T07:14:03.657Z,941.88
2023-06-27T07:15:03.674Z,941.92
2023-06-27T07:16:03.819Z,941.94
2023-06-27T07:17:03.632Z,941.89
2023-06-27T07:18:03.640Z,941.95
2023-06-27T07:19:03.626Z,941.92
2023-06-27T07:20:03.588Z,941.87
2023-06-27T07:21:03.678Z,941.93
2023-06-27T07:22:03.586Z,941.97
2023-06-27T07:23:03.703Z,941.93
2023-06-27T07:24:03.544Z,941.96
2023-06-27T07:25:03.573Z,941.94
2023-06-27T07:26:03.529Z,941.95
2023-06-27T07:27:03.562Z,942.03
2023-06-27T07:28:03.535Z,941.99
2023-06-27T07:29:03.518Z,942.03
2023-06-27T07:30:03.479Z,942.05
2023-06-27T07:31:03.530Z,942.04
2023-06-27T07:32:03.498Z,942.03
2023-06-27T07:33:03.532Z,941.98
2023-06-27T07:34:03.445Z,942.02
2023-06-27T07:35:03.430Z,942.00
2023-06-27T07:36:03.404Z,941.96
2023-06-27T07:37:03.468Z,941.89
2023-06-27T07:38:03.474Z,941.95
2023-06-27T07:39:05.974Z,941.92
2023-06-27T07:40:03.420Z,941.91
2023-06-27T07:41:03.377Z,941.92
2023-06-27T07:42:03.444Z,941.92
2023-06-27T07:43:04.228Z,941.88
2023-06-27T07:44:03.380Z,941.87
2023-06-27T07:45:03.318Z,941.85
2023-06-27T07:46:08.163Z,941.86
2023-06-27T07:47:03.319Z,941.86
2023-06-27T07:48:03.367Z,941.90
2023-06-27T07:49:03.329Z,941.81
2023-06-27T07:50:03.275Z,941.79
2023-06-27T07:51:03.265Z,941.78
2023-06-27T07:52:03.262Z,941.77
2023-06-27T07:53:03.228Z,941.68
2023-06-27T07:54:03.247Z,941.70
2023-06-27T07:55:03.225Z,941.71
2023-06-27T07:56:03.201Z,941.74
2023-06-27T07:57:03.201Z,941.76
2023-06-27T07:58:03.222Z,941.71
2023-06-27T07:59:03.164Z,941.72
2023-06-27T08:00:03.153Z,941.76
2023-06-27T08:01:03.159Z,941.74
2023-06-27T08:02:03.169Z,941.75
2023-06-27T08:03:03.208Z,941.75
2023-06-27T08:04:03.218Z,941.74
2023-06-27T08:05:03.122Z,941.70
2023-06-27T08:06:03.119Z,941.69
2023-06-27T08:07:03.092Z,941.69
2023-06-27T08:08:03.071Z,941.71
2023-06-27T08:09:03.082Z,941.69
2023-06-27T08:10:03.098Z,941.69
2023-06-27T08:11:03.197Z,941.65
2023-06-27T08:12:04.248Z,941.64
2023-06-27T08:13:03.044Z,941.63
2023-06-27T08:14:03.025Z,941.57
2023-06-27T08:15:03.016Z,941.60
2023-06-27T08:16:07.684Z,941.55
2023-06-27T08:17:02.972Z,941.62
2023-06-27T08:18:05.850Z,941.63
2023-06-27T08:19:02.972Z,941.57
2023-06-27T08:20:03.006Z,941.55
2023-06-27T08:21:10.653Z,941.51
2023-06-27T08:22:02.958Z,941.50
2023-06-27T08:23:02.937Z,941.48
2023-06-27T08:24:02.939Z,941.47
2023-06-27T08:25:02.893Z,941.43
2023-06-27T08:26:02.952Z,941.44
2023-06-27T08:27:02.944Z,941.42
2023-06-27T08:28:02.879Z,941.42
2023-06-27T08:29:02.873Z,941.43
2023-06-27T08:30:02.849Z,941.43
2023-06-27T08:31:02.908Z,941.44
2023-06-27T08:32:02.878Z,941.43
2023-06-27T08:33:02.847Z,941.38
2023-06-27T08:34:02.930Z,941.39
2023-06-27T08:35:02.807Z,941.43
2023-06-27T08:36:02.813Z,941.42
2023-06-27T08:37:02.866Z,941.44
2023-06-27T08:38:02.771Z,941.44
2023-06-27T08:39:02.771Z,941.43
2023-06-27T08:40:02.758Z,941.45
2023-06-27T08:41:02.725Z,941.41
2023-06-27T08:42:02.709Z,941.44
2023-06-27T08:43:02.770Z,941.40
2023-06-27T08:44:02.885Z,941.39
2023-06-27T08:45:02.746Z,941.40
2023-06-27T08:46:07.652Z,941.36
2023-06-27T08:47:02.695Z,941.34
2023-06-27T08:48:02.798Z,941.42
2023-06-27T08:49:02.722Z,941.40
2023-06-27T08:50:02.634Z,941.36
2023-06-27T08:51:02.619Z,941.34
2023-06-27T08:52:02.654Z,941.37
2023-06-27T08:53:03.142Z,941.36
2023-06-27T08:54:02.594Z,941.38
2023-06-27T08:55:02.653Z,941.30
2023-06-27T08:56:02.654Z,941.31
2023-06-27T08:57:02.584Z,941.32
2023-06-27T08:58:02.584Z,941.35
2023-06-27T08:59:02.590Z,941.33
2023-06-27T09:00:02.530Z,941.35
2023-06-27T09:01:02.604Z,941.38
2023-06-27T09:02:02.567Z,941.39
2023-06-27T09:03:02.699Z,941.39
2023-06-27T09:04:02.571Z,941.36
2023-06-27T09:05:02.672Z,941.28
2023-06-27T09:06:02.503Z,941.38
2023-06-27T09:07:02.596Z,941.38
2023-06-27T09:08:02.477Z,941.34
2023-06-27T09:09:02.478Z,941.32
2023-06-27T09:10:02.455Z,941.36
2023-06-27T09:11:02.438Z,941.40
2023-06-27T09:12:02.444Z,941.41
2023-06-27T09:13:02.452Z,941.34
2023-06-27T09:14:02.456Z,941.33
2023-06-27T09:15:02.415Z,941.32
2023-06-27T09:16:07.569Z,941.34
2023-06-27T09:17:03.110Z,941.33
2023-06-27T09:18:02.422Z,941.28
2023-06-27T09:19:02.371Z,941.28
2023-06-27T09:20:02.359Z,941.31
2023-06-27T09:21:02.334Z,941.27
2023-06-27T09:22:02.346Z,941.25
2023-06-27T09:23:03.216Z,941.19
2023-06-27T09:24:02.929Z,941.30
2023-06-27T09:25:02.312Z,941.32
2023-06-27T09:26:02.362Z,941.34
2023-06-27T09:27:02.321Z,941.29
2023-06-27T09:28:02.264Z,941.41
2023-06-27T09:29:02.244Z,941.41
2023-06-27T09:30:02.244Z,941.27
2023-06-27T09:31:02.280Z,941.36
2023-06-27T09:32:02.290Z,941.29
2023-06-27T09:33:02.299Z,941.26
2023-06-27T09:34:03.538Z,941.25
2023-06-27T09:35:02.281Z,941.27
2023-06-27T09:36:03.090Z,941.34
2023-06-27T09:39:02.373Z,941.23
2023-06-27T09:40:02.196Z,941.24
2023-06-27T09:41:02.157Z,941.27
2023-06-27T09:42:02.333Z,941.31
2023-06-27T09:43:02.131Z,941.24
2023-06-27T09:44:04.302Z,941.30
2023-06-27T09:45:03.987Z,941.34
2023-06-27T09:46:12.715Z,941.28
2023-06-27T09:47:02.297Z,941.32
2023-06-27T09:48:02.103Z,941.19
2023-06-27T09:49:02.049Z,941.16
2023-06-27T09:50:02.052Z,941.19
2023-06-27T09:51:02.025Z,941.16
2023-06-27T09:52:02.021Z,941.13
2023-06-27T09:53:01.993Z,941.09
2023-06-27T09:54:01.988Z,941.04
2023-06-27T09:55:02.096Z,941.03
2023-06-27T09:56:02.275Z,941.04
2023-06-27T09:57:02.002Z,941.13
2023-06-27T09:59:10.038Z,941.11
2023-06-27T10:00:03.370Z,940.92
2023-06-27T10:01:01.906Z,941.14
2023-06-27T10:02:01.948Z,940.93
2023-06-27T10:03:01.934Z,941.17
2023-06-27T10:04:02.939Z,940.99
2023-06-27T10:05:01.915Z,940.95
2023-06-27T10:07:03.147Z,941.07
2023-06-27T10:08:01.838Z,941.15
2023-06-27T10:09:01.881Z,941.15
2023-06-27T10:10:01.817Z,941.19
2023-06-27T10:11:01.901Z,941.14
2023-06-27T10:12:01.921Z,941.10
2023-06-27T10:13:01.835Z,941.15
2023-06-27T10:14:01.933Z,941.16
2023-06-27T10:15:01.802Z,941.14
2023-06-27T10:16:01.834Z,941.16
2023-06-27T10:17:01.810Z,941.06
2023-06-27T10:18:01.873Z,941.03
2023-06-27T10:19:02.660Z,941.09
2023-06-27T10:20:01.747Z,941.05
2023-06-27T10:21:01.805Z,941.06
2023-06-27T10:22:01.737Z,940.91
2023-06-27T10:23:01.715Z,940.87
2023-06-27T10:24:01.782Z,940.88
2023-06-27T10:25:01.712Z,940.92
2023-06-27T10:26:01.661Z,940.88
2023-06-27T10:27:01.668Z,940.86
2023-06-27T10:28:01.642Z,940.80
2023-06-27T10:29:01.693Z,940.87
2023-06-27T10:30:01.633Z,940.88
2023-06-27T10:31:01.725Z,940.90
2023-06-27T10:32:01.612Z,940.84
2023-06-27T10:33:01.687Z,940.92
2023-06-27T10:34:01.625Z,940.85
2023-06-27T10:35:01.593Z,940.86
2023-06-27T10:36:01.902Z,940.88
2023-06-27T10:37:01.564Z,940.86
2023-06-27T10:38:01.536Z,940.92
2023-06-27T10:39:01.750Z,940.93
2023-06-27T10:40:01.715Z,940.95
2023-06-27T10:41:01.513Z,940.99
2023-06-27T10:42:02.129Z,940.99
2023-06-27T10:43:01.541Z,940.99
2023-06-27T10:44:01.472Z,941.06
2023-06-27T10:45:01.481Z,941.06
2023-06-27T10:46:22.505Z,941.01
2023-06-27T10:47:01.471Z,940.96
2023-06-27T10:48:01.457Z,940.96
2023-06-27T10:49:01.461Z,940.93
2023-06-27T10:50:01.522Z,940.97
2023-06-27T10:51:01.493Z,940.84
2023-06-27T10:52:01.471Z,940.74
2023-06-27T10:53:01.449Z,940.94
2023-06-27T10:54:01.417Z,940.91
2023-06-27T10:55:01.363Z,940.89
2023-06-27T10:56:01.365Z,940.89
2023-06-27T10:57:01.348Z,940.87
2023-06-27T10:58:01.356Z,940.94
2023-06-27T10:59:01.345Z,940.85
2023-06-27T11:00:01.302Z,940.89
2023-06-27T11:01:01.393Z,940.91
2023-06-27T11:02:01.536Z,940.93
2023-06-27T11:03:01.451Z,940.96
2023-06-27T11:04:01.355Z,940.92
2023-06-27T11:05:01.474Z,940.91
2023-06-27T11:06:01.356Z,940.89
2023-06-27T11:07:01.340Z,940.92
2023-06-27T11:08:01.217Z,940.87
2023-06-27T11:09:01.221Z,940.90
2023-06-27T11:10:01.266Z,940.87
2023-06-27T11:11:01.320Z,940.89
2023-06-27T11:12:01.250Z,940.95
2023-06-27T11:13:01.278Z,940.87
2023-06-27T11:14:01.155Z,940.94
2023-06-27T11:15:01.184Z,940.87
2023-06-27T11:16:05.884Z,940.91
2023-06-27T11:17:01.206Z,940.90
2023-06-27T11:18:01.212Z,940.87
2023-06-27T11:19:01.153Z,940.86
2023-06-27T11:20:01.212Z,940.87
2023-06-27T11:21:01.101Z,940.82
2023-06-27T11:22:01.160Z,940.75
2023-06-27T11:23:01.070Z,940.82
2023-06-27T11:24:01.083Z,940.84
2023-06-27T11:25:01.061Z,940.84
2023-06-27T11:26:01.055Z,940.85
2023-06-27T11:27:01.025Z,940.81
2023-06-27T11:28:01.041Z,940.81
2023-06-27T11:29:01.078Z,940.84
2023-06-27T11:30:01.020Z,940.76
2023-06-27T11:31:01.070Z,940.76
2023-06-27T11:32:01.145Z,940.77
2023-06-27T11:33:01.053Z,940.79
2023-06-27T11:34:00.993Z,940.73
2023-06-27T11:35:01.007Z,940.69
2023-06-27T11:36:01.303Z,940.74
2023-06-27T11:37:01.108Z,940.75
2023-06-27T11:38:00.937Z,940.68
2023-06-27T11:39:00.974Z,940.76
2023-06-27T11:40:00.896Z,940.73
2023-06-27T11:41:00.913Z,940.65
2023-06-27T11:42:00.877Z,940.62
2023-06-27T11:43:00.882Z,940.66
2023-06-27T11:44:01.724Z,940.77
2023-06-27T11:45:00.937Z,940.76
2023-06-27T11:46:00.847Z,940.71
2023-06-27T11:47:00.868Z,940.74
2023-06-27T11:48:00.908Z,940.74
2023-06-27T11:49:00.875Z,940.69
2023-06-27T11:50:00.816Z,940.70
2023-06-27T11:51:00.905Z,940.67
2023-06-27T11:52:00.782Z,940.72
2023-06-27T11:53:00.833Z,940.70
2023-06-27T11:54:00.794Z,940.67
2023-06-27T11:55:00.737Z,940.66
2023-06-27T11:56:13.864Z,940.69
2023-06-27T11:57:01.790Z,940.65
2023-06-27T11:58:00.768Z,940.65
2023-06-27T11:59:00.718Z,940.68
2023-06-27T12:00:00.721Z,940.73
2023-06-27T12:01:00.710Z,940.67
2023-06-27T12:02:00.749Z,940.64
2023-06-27T12:03:00.762Z,940.64
2023-06-27T12:04:00.759Z,940.61
2023-06-27T12:05:00.622Z,940.65
2023-06-27T12:06:00.667Z,940.62
2023-06-27T12:07:00.668Z,940.61
2023-06-27T12:08:00.635Z,940.55
2023-06-27T12:09:00.603Z,940.50
2023-06-27T12:10:00.637Z,940.55
2023-06-27T12:11:00.569Z,940.56
2023-06-27T12:12:00.646Z,940.59
2023-06-27T12:13:00.570Z,940.56
2023-06-27T12:14:00.559Z,940.59
2023-06-27T12:15:00.537Z,940.61
2023-06-27T12:16:00.553Z,940.61
2023-06-27T12:17:00.539Z,940.59
2023-06-27T12:18:00.696Z,940.55
2023-06-27T12:19:00.551Z,940.63
2023-06-27T12:20:00.498Z,940.63
2023-06-27T12:21:00.475Z,940.56
2023-06-27T12:22:00.447Z,940.62
2023-06-27T12:23:00.499Z,940.63
2023-06-27T12:24:00.453Z,940.61
2023-06-27T12:25:00.477Z,940.62
2023-06-27T12:26:00.464Z,940.53
2023-06-27T12:27:00.411Z,940.55
2023-06-27T12:28:00.437Z,940.56
2023-06-27T12:29:00.404Z,940.55
2023-06-27T12:30:00.382Z,940.48
2023-06-27T12:31:00.385Z,940.45
2023-06-27T12:32:00.365Z,940.49